createdAt,value
2018-12-26T00:01:42.802Z,55.43
2018-12-26T00:04:09.188Z,55.33
2018-12-26T00:06:35.502Z,55.62
2018-12-26T00:09:02.024Z,55.68
2018-12-26T00:11:28.302Z,55.94
2018-12-26T00:13:54.472Z,55.62
2018-12-26T00:16:20.695Z,56.40
2018-12-26T00:18:46.982Z,55.54
2018-12-26T00:21:13.267Z,55.93
2018-12-26T00:23:39.499Z,56.50
2018-12-26T00:28:53.321Z,56.30
2018-12-26T00:31:19.610Z,56.54
2018-12-26T00:36:39.260Z,56.14
2018-12-26T00:39:05.536Z,56.52
2018-12-26T00:41:31.818Z,56.23
2018-12-26T00:43:58.029Z,56.76
2018-12-26T00:46:24.314Z,56.70
2018-12-26T00:48:50.618Z,56.33
2018-12-26T00:51:16.943Z,57.28
2018-12-26T00:53:43.109Z,56.65
2018-12-26T00:56:10.570Z,56.50
2018-12-26T00:58:37.440Z,57.25
2018-12-26T01:01:03.762Z,56.74
2018-12-26T01:03:30.058Z,57.51
2018-12-26T01:05:56.406Z,57.23
2018-12-26T01:08:22.680Z,56.79
2018-12-26T01:10:48.832Z,57.14
2018-12-26T01:13:15.023Z,57.63
2018-12-26T01:18:33.724Z,56.84
2018-12-26T01:20:59.881Z,57.79
2018-12-26T01:23:26.037Z,57.37
2018-12-26T01:25:52.362Z,57.55
2018-12-26T01:28:18.536Z,57.45
2018-12-26T01:30:44.815Z,57.62
2018-12-26T01:33:11.106Z,56.69
2018-12-26T01:35:37.376Z,57.71
2018-12-26T01:38:03.535Z,57.29
2018-12-26T01:40:29.711Z,57.66
2018-12-26T01:42:55.862Z,57.09
2018-12-26T01:45:22.010Z,57.20
2018-12-26T01:47:48.208Z,57.35
2018-12-26T01:50:14.456Z,57.94
2018-12-26T01:52:40.723Z,57.26
2018-12-26T01:55:07.051Z,57.21
2018-12-26T01:57:33.208Z,57.20
2018-12-26T01:59:59.528Z,56.92
2018-12-26T02:02:25.712Z,56.71
2018-12-26T02:04:51.881Z,57.00
2018-12-26T02:07:18.145Z,56.80
2018-12-26T02:17:41.358Z,56.61
2018-12-26T02:20:07.507Z,56.69
2018-12-26T02:22:33.706Z,56.51
2018-12-26T02:24:59.871Z,56.49
2018-12-26T02:27:26.054Z,56.25
2018-12-26T02:29:52.260Z,55.99
2018-12-26T02:32:18.413Z,56.24
2018-12-26T02:34:44.677Z,56.48
2018-12-26T02:37:10.884Z,57.18
2018-12-26T02:39:37.140Z,57.39
2018-12-26T02:42:03.311Z,56.53
2018-12-26T02:44:29.616Z,56.91
2018-12-26T02:46:55.779Z,56.49
2018-12-26T02:49:22.044Z,56.51
2018-12-26T02:51:48.238Z,56.76
2018-12-26T02:54:14.499Z,56.69
2018-12-26T02:56:46.312Z,56.79
2018-12-26T02:59:08.852Z,57.68
2018-12-26T03:01:35.179Z,57.30
2018-12-26T03:04:01.338Z,57.44
2018-12-26T03:06:27.659Z,57.73
2018-12-26T03:08:54.081Z,58.56
2018-12-26T03:11:20.244Z,57.21
2018-12-26T03:14:27.882Z,57.86
2018-12-26T03:16:54.135Z,57.77
2018-12-26T03:19:20.301Z,57.94
2018-12-26T03:21:46.513Z,58.37
2018-12-26T03:24:12.775Z,58.49
2018-12-26T03:26:38.934Z,57.97
2018-12-26T03:29:05.122Z,58.08
2018-12-26T03:31:31.286Z,58.36
2018-12-26T03:33:57.544Z,58.87
2018-12-26T03:36:23.735Z,58.42
2018-12-26T03:38:49.911Z,58.06
2018-12-26T03:41:16.169Z,59.35
2018-12-26T03:43:42.354Z,59.39
2018-12-26T03:46:49.971Z,58.14
2018-12-26T03:49:16.219Z,59.18
2018-12-26T03:51:42.377Z,59.28
2018-12-26T03:54:49.973Z,58.45
2018-12-26T03:57:16.132Z,58.82
2018-12-26T03:59:42.383Z,59.24
2018-12-26T04:02:08.610Z,58.71
2018-12-26T04:04:34.767Z,59.28
2018-12-26T04:07:01.027Z,58.49
2018-12-26T04:09:27.231Z,59.14
2018-12-26T04:11:53.388Z,58.36
2018-12-26T04:14:19.547Z,58.27
2018-12-26T04:19:25.352Z,58.06
2018-12-26T04:21:51.492Z,58.45
2018-12-26T04:24:17.751Z,58.00
2018-12-26T04:26:43.933Z,58.31
2018-12-26T04:29:10.083Z,57.80
2018-12-26T04:31:36.244Z,57.70
2018-12-26T04:34:02.422Z,58.24
2018-12-26T04:36:28.683Z,60.03
2018-12-26T04:38:54.849Z,58.11
2018-12-26T04:45:00.326Z,58.39
2018-12-26T04:47:28.263Z,58.15
2018-12-26T04:49:54.420Z,57.80
2018-12-26T04:52:20.613Z,58.01
2018-12-26T04:54:46.777Z,58.78
2018-12-26T04:57:12.951Z,58.41
2018-12-26T04:59:39.154Z,58.72
2018-12-26T05:02:05.418Z,58.94
2018-12-26T05:04:31.579Z,59.41
2018-12-26T05:06:57.772Z,59.40
2018-12-26T05:09:23.953Z,59.15
2018-12-26T05:11:50.109Z,59.05
2018-12-26T05:14:16.297Z,59.36
2018-12-26T05:16:42.556Z,58.48
2018-12-26T05:19:08.715Z,59.01
2018-12-26T05:21:34.903Z,58.29
2018-12-26T05:24:01.056Z,59.01
2018-12-26T05:26:27.210Z,58.45
2018-12-26T05:28:53.419Z,58.86
2018-12-26T05:31:19.576Z,59.02
2018-12-26T05:33:45.742Z,58.03
2018-12-26T05:36:12.021Z,58.60
2018-12-26T05:38:38.174Z,58.53
2018-12-26T05:41:04.332Z,57.94
2018-12-26T05:43:30.519Z,57.38
2018-12-26T05:45:56.675Z,58.19
2018-12-26T05:48:22.836Z,57.47
2018-12-26T05:50:49.035Z,57.88
2018-12-26T05:53:15.205Z,58.43
2018-12-26T05:55:41.371Z,58.12
2018-12-26T05:58:07.587Z,57.67
2018-12-26T06:00:33.837Z,57.97
2018-12-26T06:02:59.995Z,57.29
2018-12-26T06:05:26.248Z,57.77
2018-12-26T06:07:52.503Z,57.29
2018-12-26T06:13:13.016Z,54.96
2018-12-26T06:15:39.164Z,54.30
2018-12-26T06:18:05.317Z,53.26
2018-12-26T06:20:31.633Z,51.57
2018-12-26T06:22:57.909Z,50.98
2018-12-26T06:25:24.075Z,50.01
2018-12-26T06:27:51.578Z,50.54
2018-12-26T06:30:18.424Z,48.94
2018-12-26T06:32:44.582Z,48.86
2018-12-26T06:35:10.785Z,47.27
2018-12-26T06:37:36.939Z,47.71
2018-12-26T06:40:44.553Z,45.94
2018-12-26T06:43:10.816Z,47.88
2018-12-26T06:45:36.976Z,45.40
2018-12-26T06:48:03.168Z,45.52
2018-12-26T06:50:29.432Z,43.29
2018-12-26T06:52:55.604Z,41.64
2018-12-26T06:55:21.806Z,42.21
2018-12-26T06:57:48.068Z,43.50
2018-12-26T07:00:14.341Z,41.96
2018-12-26T07:02:40.630Z,43.43
2018-12-26T07:05:06.888Z,42.79
2018-12-26T07:07:33.103Z,44.60
2018-12-26T07:09:59.293Z,44.70
2018-12-26T07:12:25.472Z,46.15
2018-12-26T07:14:51.622Z,44.08
2018-12-26T07:19:56.879Z,43.69
2018-12-26T07:22:23.047Z,42.99
2018-12-26T07:24:49.446Z,42.33
2018-12-26T07:27:15.649Z,45.41
2018-12-26T07:29:41.820Z,42.44
2018-12-26T07:32:08.083Z,40.57
2018-12-26T07:34:41.993Z,41.16
2018-12-26T07:37:02.329Z,40.61
2018-12-26T07:39:28.491Z,40.99
2018-12-26T07:41:54.792Z,41.80
2018-12-26T07:44:20.966Z,42.14
2018-12-26T07:46:47.124Z,43.62
2018-12-26T07:49:13.314Z,45.87
2018-12-26T07:51:39.580Z,46.85
2018-12-26T07:54:05.736Z,47.18
2018-12-26T07:56:31.924Z,46.95
2018-12-26T07:58:58.184Z,47.32
2018-12-26T08:01:24.468Z,48.64
2018-12-26T08:03:50.751Z,47.79
2018-12-26T08:06:16.911Z,47.43
2018-12-26T08:08:43.133Z,47.58
2018-12-26T08:11:09.316Z,47.18
2018-12-26T08:13:35.609Z,47.80
2018-12-26T08:16:01.776Z,48.22
2018-12-26T08:18:28.062Z,48.01
2018-12-26T08:20:54.212Z,48.81
2018-12-26T08:23:20.400Z,48.87
2018-12-26T08:25:46.592Z,50.00
2018-12-26T08:28:12.756Z,50.10
2018-12-26T08:30:38.898Z,50.42
2018-12-26T08:33:05.079Z,50.74
2018-12-26T08:35:31.243Z,50.55
2018-12-26T08:37:57.390Z,50.74
2018-12-26T08:40:23.586Z,49.33
2018-12-26T08:42:49.742Z,49.35
2018-12-26T08:45:16.004Z,47.85
2018-12-26T08:47:42.206Z,48.14
2018-12-26T08:50:08.364Z,48.42
2018-12-26T08:52:34.522Z,46.47
2018-12-26T08:55:00.704Z,46.46
2018-12-26T08:57:26.860Z,46.01
2018-12-26T08:59:53.010Z,46.26
2018-12-26T09:02:19.345Z,45.99
2018-12-26T09:04:45.742Z,45.18
2018-12-26T09:07:12.001Z,44.81
2018-12-26T09:09:38.262Z,43.71
2018-12-26T09:12:04.508Z,43.88
2018-12-26T09:14:30.774Z,44.65
2018-12-26T09:16:56.964Z,44.40
2018-12-26T09:19:23.222Z,44.70
2018-12-26T09:21:49.476Z,45.25
2018-12-26T09:24:15.664Z,43.77
2018-12-26T09:26:41.939Z,43.49
2018-12-26T09:29:08.110Z,45.15
2018-12-26T09:31:34.397Z,43.39
2018-12-26T09:34:00.568Z,43.18
2018-12-26T09:36:26.838Z,41.46
2018-12-26T09:38:53.029Z,40.36
2018-12-26T09:41:19.214Z,41.66
2018-12-26T09:43:45.367Z,42.00
2018-12-26T09:46:11.559Z,40.58
2018-12-26T09:48:38.746Z,40.29
2018-12-26T09:51:19.028Z,39.94
2018-12-26T09:53:45.185Z,40.67
2018-12-26T09:56:11.343Z,39.73
2018-12-26T09:58:37.527Z,39.31
2018-12-26T10:01:03.701Z,39.88
2018-12-26T10:03:29.856Z,40.49
2018-12-26T10:05:56.040Z,40.70
2018-12-26T10:08:22.201Z,40.59
2018-12-26T10:10:48.365Z,40.30
2018-12-26T10:16:11.829Z,40.64
2018-12-26T10:18:37.990Z,39.94
2018-12-26T10:21:04.300Z,40.55
2018-12-26T10:23:30.599Z,40.36
2018-12-26T10:25:56.755Z,39.65
2018-12-26T10:28:22.908Z,38.62
2018-12-26T10:30:49.210Z,38.80
2018-12-26T10:33:15.471Z,38.66
2018-12-26T10:35:41.631Z,38.23
2018-12-26T10:38:07.848Z,38.47
2018-12-26T10:40:33.994Z,38.62
2018-12-26T10:43:00.152Z,37.95
2018-12-26T10:45:26.339Z,38.19
2018-12-26T10:47:52.495Z,38.25
2018-12-26T10:50:18.699Z,39.97
2018-12-26T10:52:44.890Z,40.05
2018-12-26T10:55:11.045Z,41.05
2018-12-26T10:57:37.318Z,41.40
2018-12-26T11:00:44.901Z,40.19
2018-12-26T11:03:11.066Z,40.89
2018-12-26T11:05:37.216Z,40.23
2018-12-26T11:08:03.433Z,39.07
2018-12-26T11:10:29.614Z,40.08
2018-12-26T11:12:55.780Z,41.90
2018-12-26T11:15:22.110Z,42.15
2018-12-26T11:20:55.726Z,41.64
2018-12-26T11:23:22.088Z,42.53
2018-12-26T11:25:48.249Z,42.24
2018-12-26T11:28:14.440Z,41.41
2018-12-26T11:30:40.695Z,43.47
2018-12-26T11:33:06.861Z,43.86
2018-12-26T11:35:33.066Z,44.84
2018-12-26T11:37:59.330Z,43.99
2018-12-26T11:40:25.499Z,42.87
2018-12-26T11:43:33.149Z,42.65
2018-12-26T11:45:59.312Z,43.11
2018-12-26T11:48:25.510Z,42.97
2018-12-26T11:50:51.773Z,42.74
2018-12-26T11:53:17.936Z,42.55
2018-12-26T11:55:44.096Z,42.79
2018-12-26T11:58:10.291Z,40.92
2018-12-26T12:00:36.444Z,42.42
2018-12-26T12:03:02.605Z,42.31
2018-12-26T12:05:28.801Z,42.26
2018-12-26T12:07:54.953Z,42.48
2018-12-26T12:10:21.117Z,41.51
2018-12-26T12:12:47.320Z,40.46
2018-12-26T12:15:13.505Z,39.61
2018-12-26T12:17:39.764Z,39.86
2018-12-26T12:20:47.366Z,40.41
2018-12-26T12:23:13.528Z,41.10
2018-12-26T12:25:39.697Z,41.64
2018-12-26T12:28:05.991Z,41.25
2018-12-26T12:30:32.252Z,42.31
2018-12-26T12:32:58.409Z,43.08
2018-12-26T12:36:06.023Z,44.91
2018-12-26T12:41:33.370Z,47.52
2018-12-26T12:43:59.540Z,45.91
2018-12-26T12:46:25.697Z,45.93
2018-12-26T12:48:51.883Z,45.78
2018-12-26T12:51:18.151Z,45.44
2018-12-26T12:53:44.387Z,46.51
2018-12-26T12:56:12.195Z,47.90
2018-12-26T12:58:39.222Z,46.31
2018-12-26T13:01:05.423Z,47.22
2018-12-26T13:03:31.714Z,47.97
2018-12-26T13:05:57.859Z,47.33
2018-12-26T13:08:24.113Z,47.79
2018-12-26T13:13:22.253Z,45.50
2018-12-26T13:15:48.457Z,46.34
2018-12-26T13:23:41.261Z,47.39
2018-12-26T13:26:07.371Z,47.55
2018-12-26T13:28:33.527Z,46.77
2018-12-26T13:31:04.978Z,47.16
2018-12-26T13:36:15.402Z,46.74
2018-12-26T13:38:41.562Z,47.29
2018-12-26T13:41:07.729Z,48.42
2018-12-26T13:43:33.918Z,49.84
2018-12-26T13:46:00.077Z,50.29
2018-12-26T13:48:26.325Z,49.95
2018-12-26T13:50:52.506Z,49.67
2018-12-26T13:53:18.755Z,49.64
2018-12-26T13:55:44.902Z,49.10
2018-12-26T13:58:11.090Z,49.45
2018-12-26T14:00:37.339Z,49.40
2018-12-26T14:03:03.501Z,49.58
2018-12-26T14:05:29.790Z,50.28
2018-12-26T14:07:56.039Z,50.67
2018-12-26T14:10:22.208Z,50.31
2018-12-26T14:12:48.423Z,50.19
2018-12-26T14:15:14.584Z,49.75
2018-12-26T14:17:40.781Z,50.20
2018-12-26T14:20:07.108Z,50.66
2018-12-26T14:22:33.352Z,49.76
2018-12-26T14:24:59.510Z,50.26
2018-12-26T14:27:29.588Z,49.98
2018-12-26T14:29:53.870Z,50.10
2018-12-26T14:32:20.023Z,50.15
2018-12-26T14:34:46.211Z,50.76
2018-12-26T14:37:12.366Z,50.92
2018-12-26T14:39:38.627Z,51.42
2018-12-26T14:42:04.822Z,51.92
2018-12-26T14:44:30.976Z,52.35
2018-12-26T14:46:57.123Z,52.08
2018-12-26T14:49:23.319Z,52.19
2018-12-26T14:51:49.472Z,51.67
2018-12-26T14:54:15.726Z,52.58
2018-12-26T14:56:41.922Z,53.66
2018-12-26T14:59:08.123Z,52.95
2018-12-26T15:01:34.278Z,53.34
2018-12-26T15:04:00.459Z,53.12
2018-12-26T15:06:26.614Z,52.73
2018-12-26T15:08:52.777Z,52.18
2018-12-26T15:11:19.077Z,52.37
2018-12-26T15:13:45.358Z,53.15
2018-12-26T15:16:11.512Z,52.55
2018-12-26T15:18:37.861Z,52.44
2018-12-26T15:21:04.020Z,53.12
2018-12-26T15:23:30.164Z,53.12
2018-12-26T15:25:56.409Z,53.63
2018-12-26T15:28:22.618Z,52.79
2018-12-26T15:30:48.775Z,52.42
2018-12-26T15:33:14.964Z,54.53
2018-12-26T15:35:41.234Z,53.32
2018-12-26T15:38:07.419Z,52.41
2018-12-26T15:40:33.606Z,52.70
2018-12-26T15:42:59.762Z,51.85
2018-12-26T15:45:25.926Z,51.62
2018-12-26T15:47:52.111Z,52.30
2018-12-26T15:50:18.264Z,52.57
2018-12-26T15:52:44.416Z,52.16
2018-12-26T15:55:10.707Z,52.17
2018-12-26T15:57:36.864Z,51.97
2018-12-26T16:00:58.358Z,52.67
2018-12-26T16:02:53.060Z,52.36
2018-12-26T16:05:19.212Z,52.74
2018-12-26T16:07:45.394Z,52.78
2018-12-26T16:10:11.547Z,51.59
2018-12-26T16:12:37.698Z,51.95
2018-12-26T16:15:45.330Z,51.75
2018-12-26T16:18:11.490Z,51.61
2018-12-26T16:20:37.645Z,52.82
2018-12-26T16:23:04.064Z,51.56
2018-12-26T16:25:30.224Z,51.86
2018-12-26T16:27:56.376Z,52.86
2018-12-26T16:30:22.666Z,52.02
2018-12-26T16:32:48.929Z,52.11
2018-12-26T16:35:15.085Z,52.19
2018-12-26T16:37:41.280Z,51.88
2018-12-26T16:40:07.434Z,52.48
2018-12-26T16:42:33.599Z,52.65
2018-12-26T16:44:59.789Z,52.64
2018-12-26T16:47:25.944Z,52.42
2018-12-26T16:49:52.109Z,51.96
2018-12-26T16:52:18.293Z,53.20
2018-12-26T16:54:44.447Z,53.68
2018-12-26T16:57:10.604Z,53.50
2018-12-26T16:59:36.795Z,53.56
2018-12-26T17:02:02.997Z,52.47
2018-12-26T17:07:16.903Z,52.69
2018-12-26T17:09:43.061Z,52.73
2018-12-26T17:12:09.212Z,53.09
2018-12-26T17:14:35.503Z,53.85
2018-12-26T17:17:01.655Z,54.75
2018-12-26T17:19:27.812Z,55.65
2018-12-26T17:21:54.067Z,55.13
2018-12-26T17:24:20.223Z,54.34
2018-12-26T17:26:46.388Z,54.73
2018-12-26T17:29:12.688Z,55.10
2018-12-26T17:31:38.849Z,55.48
2018-12-26T17:34:05.004Z,55.86
2018-12-26T17:36:31.344Z,56.34
2018-12-26T17:38:57.500Z,56.26
2018-12-26T17:41:23.755Z,56.30
2018-12-26T17:43:50.039Z,57.69
2018-12-26T17:46:16.290Z,57.52
2018-12-26T17:48:42.477Z,58.31
2018-12-26T17:51:50.081Z,57.80
2018-12-26T17:57:45.913Z,57.71
2018-12-26T18:03:12.568Z,57.20
2018-12-26T18:05:38.727Z,57.08
2018-12-26T18:08:04.883Z,57.78
2018-12-26T18:10:31.088Z,58.16
2018-12-26T18:12:57.251Z,57.12
2018-12-26T18:15:23.434Z,57.05
2018-12-26T18:17:49.606Z,58.08
2018-12-26T18:20:15.768Z,57.91
2018-12-26T18:22:42.077Z,57.94
2018-12-26T18:25:08.262Z,58.86
2018-12-26T18:27:34.415Z,58.85
2018-12-26T18:30:00.576Z,58.57
2018-12-26T18:32:26.768Z,59.30
2018-12-26T18:34:53.052Z,59.23
2018-12-26T18:37:36.866Z,60.24
2018-12-26T18:40:31.532Z,60.22
2018-12-26T18:42:57.744Z,60.50
2018-12-26T18:45:23.905Z,59.47
2018-12-26T18:47:50.100Z,60.17
2018-12-26T18:50:16.258Z,59.90
2018-12-26T18:52:42.513Z,60.66
2018-12-26T18:55:08.695Z,60.54
2018-12-26T18:57:34.849Z,60.76
2018-12-26T19:00:01.108Z,60.77
2018-12-26T19:02:27.297Z,60.63
2018-12-26T19:04:53.456Z,60.63
2018-12-26T19:07:19.615Z,59.62
2018-12-26T19:09:45.806Z,59.32
2018-12-26T19:12:11.964Z,58.95
2018-12-26T19:14:40.240Z,58.20
2018-12-26T19:17:06.210Z,59.06
2018-12-26T19:19:32.367Z,59.48
2018-12-26T19:21:58.525Z,59.00
2018-12-26T19:27:03.709Z,59.79
2018-12-26T19:29:29.854Z,58.68
2018-12-26T19:31:56.009Z,58.11
2018-12-26T19:34:22.215Z,57.76
2018-12-26T19:36:48.373Z,58.23
2018-12-26T19:39:14.536Z,57.17
2018-12-26T19:41:40.849Z,57.85
2018-12-26T19:44:08.887Z,58.71
2018-12-26T19:46:35.042Z,57.83
2018-12-26T19:49:01.237Z,58.01
2018-12-26T19:51:27.403Z,58.29
2018-12-26T19:53:53.667Z,56.77
2018-12-26T19:56:19.853Z,56.97
2018-12-26T19:58:46.003Z,57.75
2018-12-26T20:01:12.161Z,56.79
2018-12-26T20:03:38.356Z,56.92
2018-12-26T20:06:04.518Z,56.35
2018-12-26T20:08:30.671Z,55.34
2018-12-26T20:10:56.868Z,55.67
2018-12-26T20:13:23.131Z,55.66
2018-12-26T20:15:49.296Z,56.20
2018-12-26T20:18:15.482Z,55.12
2018-12-26T20:20:41.632Z,55.33
2018-12-26T20:23:07.778Z,56.03
2018-12-26T20:25:34.125Z,55.78
2018-12-26T20:28:00.284Z,55.23
2018-12-26T20:30:26.541Z,55.67
2018-12-26T20:32:52.740Z,56.02
2018-12-26T20:35:18.906Z,55.94
2018-12-26T20:37:45.057Z,56.01
2018-12-26T20:40:11.237Z,55.55
2018-12-26T20:42:37.516Z,56.49
2018-12-26T20:45:45.095Z,55.09
2018-12-26T20:48:11.250Z,54.98
2018-12-26T20:50:37.407Z,55.11
2018-12-26T20:53:03.603Z,54.45
2018-12-26T20:55:29.881Z,54.38
2018-12-26T20:57:56.026Z,55.27
2018-12-26T21:00:22.319Z,55.11
2018-12-26T21:02:48.483Z,55.10
2018-12-26T21:05:14.644Z,54.55
2018-12-26T21:07:40.832Z,54.67
2018-12-26T21:10:48.397Z,55.70
2018-12-26T21:13:14.595Z,54.73
2018-12-26T21:15:40.747Z,54.81
2018-12-26T21:18:06.895Z,55.29
2018-12-26T21:20:33.084Z,54.98
2018-12-26T21:22:59.350Z,55.17
2018-12-26T21:25:25.511Z,54.75
2018-12-26T21:27:51.711Z,54.39
2018-12-26T21:30:17.865Z,54.76
2018-12-26T21:32:44.120Z,55.73
2018-12-26T21:35:10.427Z,56.19
2018-12-26T21:37:36.587Z,55.59
2018-12-26T21:40:44.210Z,55.28
2018-12-26T21:43:10.373Z,55.65
2018-12-26T21:45:36.533Z,55.16
2018-12-26T21:48:02.725Z,56.15
2018-12-26T21:50:28.870Z,56.00
2018-12-26T21:52:55.698Z,55.45
2018-12-26T21:55:23.247Z,55.90
2018-12-26T21:57:49.401Z,55.20
2018-12-26T22:00:15.557Z,54.64
2018-12-26T22:02:41.757Z,55.11
2018-12-26T22:05:08.350Z,54.12
2018-12-26T22:07:34.494Z,55.05
2018-12-26T22:10:00.808Z,54.67
2018-12-26T22:12:26.985Z,54.10
2018-12-26T22:14:53.156Z,54.61
2018-12-26T22:17:19.355Z,55.18
2018-12-26T22:19:45.649Z,54.53
2018-12-26T22:22:11.803Z,53.55
2018-12-26T22:24:38.071Z,53.50
2018-12-26T22:27:04.240Z,54.09
2018-12-26T22:29:30.400Z,55.00
2018-12-26T22:31:56.601Z,54.26
2018-12-26T22:34:22.871Z,54.55
2018-12-26T22:36:49.033Z,54.93
2018-12-26T22:39:15.227Z,54.72
2018-12-26T22:41:41.388Z,53.48
2018-12-26T22:44:07.545Z,53.73
2018-12-26T22:46:33.745Z,55.31
2018-12-26T22:48:59.903Z,55.48
2018-12-26T22:51:26.052Z,54.30
2018-12-26T22:53:52.334Z,55.01
2018-12-26T22:56:18.597Z,54.47
2018-12-26T22:58:44.861Z,54.10
2018-12-26T23:01:11.166Z,54.10
2018-12-26T23:03:37.323Z,55.46
2018-12-26T23:06:03.477Z,55.94
2018-12-26T23:08:29.667Z,55.17
2018-12-26T23:10:55.919Z,55.65
2018-12-26T23:13:22.078Z,55.65
2018-12-26T23:15:48.272Z,55.44
2018-12-26T23:18:14.432Z,55.58
2018-12-26T23:20:40.596Z,55.58
2018-12-26T23:23:06.788Z,55.59
2018-12-26T23:25:32.941Z,54.72
2018-12-26T23:27:59.260Z,55.50
2018-12-26T23:30:25.445Z,55.78
2018-12-26T23:32:51.607Z,54.90
2018-12-26T23:35:17.764Z,55.34
2018-12-26T23:37:43.949Z,55.23
2018-12-26T23:40:10.110Z,55.62
2018-12-26T23:42:36.263Z,55.32
2018-12-26T23:45:02.454Z,55.34
2018-12-26T23:47:28.609Z,56.01
2018-12-26T23:49:54.769Z,54.77
2018-12-26T23:52:20.949Z,55.77
2018-12-26T23:54:47.103Z,56.41
2018-12-26T23:57:13.267Z,56.18
2018-12-26T23:59:39.566Z,55.56
